首页
METAR-TAF:

METAR-TAF

机场 :

巴格達國際機場

巴格达, 伊拉克

纬度: 33-15-45N, 经度: 44-14-04E, 海拔: 35米

当前天气观测

该预报发布于39分钟前的06:00 UTC
风速5节,风向北转西北
温度 12°C
湿度 76%
气压 1022 hPa
能見度: 2300
轻雾

METAR: ORBI 180600Z 33005KT 2300 BR NSC 12/08 Q1022 NOSIG

时间: 09:39 (06:39 UTC)

预报

该预报发布于2小时和39分钟前的04:00 UTC
预报有效从18日的 06点(UTC)到 19日的 06点(UTC)
风速10节,风向西转西北
能見度: 6000

TAF: ORBI 180400Z 1806/1906 30010KT 6000 NSC

超过4000个机场的气象观测和天气预报(METAR&TAF报告)。

可查询的气象台以黄色和红色小点在地图上表示。

将鼠标移到小点上方,可查看气象台名称。

然后点击查看天气观测和预报。

如需切换地图:点击带黑十字的绿色按钮放大地图;点击带横线的绿色按钮缩小地图;或者点击绿色箭头查看邻近地区的地图。


METAR-TAF: